Augusta, Maine
Current Conditions -  °F | °C
As of 4:53 PM on Sunday 21 Dec 2014 (Local Time) from KAUG Reporting Station
Overcast Overcast  
Wind Chill: -6°   Ceiling: 7500
Heat Index: -3°   Visibility: 10mi
Dew Point: -6°   Wind: 5mph
Humidity: 78%   Direction: 350°N
Pressure: 30.34"   Gusts: NA
Location:  44.32°N, 69.78°W
Report Text: KAUG 212153Z AUTO 35004KT 10SM OVC075 M03/M06 A3034 RMK AO2 SLP281 T10281061
Loading
Personal Weather Stations






























Interactive Weather Map New forecast layout! Learn more

10-Day Weather Forecast

Advertisements
Track Severe Weather on mobile